Airfield :
LOGIN :

Register | Disclaimer

   EN    FR    IT 

 










Legend :    VFR   Marginal VFR   IFR   Intensive IFR   Very Intensive IFR
Visi :
Ceiling :
>= 8 km
>= 3000ft
5 to 8 km
1000 to 3000 ft
1500m to 5 km
500 to 1000 ft
800 to 1500m
200 to 500 ft
< 800m
< 200 ft
Symbols :   Thunderstorms  Fog  Heavy snow  Heavy precipitations  Wind > 20 kt
SIGMETs :     Misc.  Thunderstorms  Icing  Turbulence  Mountain Waves  Volcanic Ashes






- Airport Elevation : 614 ft
- IATA code : CRL


EBCI - Charleroi

CURRENT METAR :
  • 241320Z 20016KT 170V230 9999 SCT039 16/06 Q1002 NOSIG

EXPIRED METARs :
  • 241250Z 20018KT 9999 SCT039 17/07 Q1002 NOSIG
  • 241220Z 19013G25KT 150V210 9999 FEW033 17/07 Q1002 NOSIG
  • 241150Z 20018KT 160V220 9999 FEW033 16/07 Q1003 NOSIG
  • 241120Z 20018KT 170V230 9999 FEW033 15/07 Q1003 NOSIG
  • 241050Z 20017KT 9999 FEW033 15/07 Q1004 NOSIG

TAF TAF EBCI
Valid from the 24 at 12:00 until the 25 at 18:00 UTC


241120Z 2412/2518 20015G25KT 9999 FEW030
BECMG 2414/2416 18009KT
PROB30
TEMPO 2414/2417 3800 SHRA
PROB30
TEMPO 2420/2422 3500 SHRA BKN012CB
PROB30
TEMPO 2503/2509 BKN010
PROB30
TEMPO 2504/2518 3500 SHRA BKN012CB
BECMG 2510/2512 24015G25KT
BECMG 2516/2518 28019G35KT



MET'MAP, your aeronautical weather chart ! - Copyright ORBIFLY December 2007 - Disclaimer

ORBIFLY MET'MAP TEAM :

Programming & Development : Alexandra Zaïnal
Concept & original design : Baudouin d'Aumeries
Assistance for programming : Marc-Olivier Méhu
Technical & hardware support : Manuel Goepfert

Contact : metmap@orbifly.com




SOURCES & CREDITS :

   NOAA